Terminal Aerodrome Forecast
Issued by NWS Wichita, KS

Home | Current Version | Previous Version | Graphics & Text | Print | Product List | Glossary On
Versions: 1 2 3 4 5 6 7 8 9 10 11 12 13 14 15 16 17 18
000
FTUS43 KICT 181700
TAFICT
TAF
KICT 181732Z 1818/1918 16015KT P6SM SCT045
     FM190300 13009KT P6SM SCT050
     FM190700 16006KT 5SM BR SCT012
     FM191500 18010KT P6SM FEW250=

USA.gov is the U.S. government's official web portal to all federal, state and local government web resources and services.